To NAV CANADA Home Page Login to a new session Search on AWWS site Disclaimer Vers la page française équivalente Tips FAQ What's new on the site To the Forecasts and Observations / NOTAM section To "File a Flight Plan" website Publications and other links Update of the User's profile FIC Telephone Numbers My Weather Data Folder Route Weather Data Regional Weather Data Local Weather Data To the Forecasts and Observations / NOTAM section
Request Generated 03/19/2019 at 23:44:05 UTC . Weather information available at that time is displayed.

METAR/TAF

LLOYDMINSTER/AB    (show WxCam)

METAR CYLL 192300Z 28013KT 15SM SCT260 06/M01 A3007 RMK CI3 SLP212=
METAR CYLL 192200Z 27011KT 15SM FEW260 05/M02 A3007 RMK CI2 SLP213=
METAR CYLL 192100Z 28012KT 15SM FEW260 06/M02 A3008 RMK CI2 SLP217=

TAF CYLL 192338Z 2000/2012 28012KT P6SM FEW260
BECMG 2002/2004 24008KT
RMK NXT FCST BY 200600Z=
Your time UTC time
Weather data provided by Environment Canada and NAV CANADA